Aérodrome :
LOGIN :

S'inscrire | Disclaimer

   EN    FR    IT 

 










Légende :    VFR   VFR Marginal   IFR   IFR Intensif   IFR Très Intensif
Visi : 
Plafond : 
>= 8 km
>= 3000ft
5 à 8 km
1000 à 3000 ft
1500m à 5 km
500 à 1000 ft
800 à 1500m
200 à 500 ft
< 800m
< 200 ft
Symboles :   Orages  Brouillard  Fortes neiges  Fortes précipitations  Vent > 20 kt
SIGMETs :   Divers  Orages  Givrage  Turbulence  Onde Orograph.  Cendres Volcan.







- Altitude de l'aérodrome : 1260 ft
- Code IATA : LDE
- Voir les cartes d'approche


LFBT - Tarbes / Ossun

DERNIER METAR :
  • 161430Z AUTO 01004KT 320V060 CAVOK 19/M03 Q1024 NOSIG

METARs EXPIRÉS :
  • 161400Z AUTO 02004KT 330V130 CAVOK 19/M04 Q1024 NOSIG
  • 161330Z AUTO 02005KT 330V060 CAVOK 19/M05 Q1024 NOSIG
  • 161300Z AUTO 02005KT 330V050 CAVOK 19/M02 Q1025 NOSIG
  • 161230Z AUTO VRB03KT CAVOK 18/M02 Q1025 NOSIG
  • 161200Z AUTO 04005KT 350V100 CAVOK 17/M04 Q1026 NOSIG

TAF TAF LFBT
Valide du 16 à 12h jusqu'au 17 à 12h UTC


161100Z 1612/1712 VRB02KT CAVOK
Pas de NOTAMs connus pour ce terrain.



MET'MAP, la Météo Aéronautique d'un coup d'oeil ! - Copyright ORBIFLY Décembre 2007 - Disclaimer

ORBIFLY MET'MAP TEAM :

Programmation & Développement : Alexandra Zaïnal
Conception & Développement : Baudouin d'Aumeries
Co-Programmation & Développement : Marc-Olivier Méhu
Soutien technique & logistique : Manuel Goepfert

Contact : metmap@orbifly.com




SOURCES & CREDITS :

   NOAA